createdAt,value
2022-10-23T11:07:56.817Z,15.77
2022-10-23T11:12:59.732Z,15.63
2022-10-23T11:18:06.416Z,15.68
2022-10-23T11:23:28.089Z,15.61
2022-10-23T11:28:43.064Z,15.59
2022-10-23T11:34:07.481Z,15.54
2022-10-23T11:39:27.311Z,15.47
2022-10-23T11:44:50.421Z,15.46
2022-10-23T11:50:07.206Z,15.28
2022-10-23T11:55:19.235Z,15.19
2022-10-23T12:00:23.556Z,15.30
2022-10-23T12:05:35.078Z,15.42
2022-10-23T12:10:46.029Z,15.39
2022-10-23T12:15:56.063Z,15.60
2022-10-23T12:21:02.276Z,15.60
2022-10-23T12:26:38.103Z,15.70
2022-10-23T12:31:48.178Z,15.85
2022-10-23T12:37:07.775Z,15.81
2022-10-23T12:42:17.514Z,15.78
2022-10-23T12:47:19.882Z,15.85
2022-10-23T12:52:22.880Z,15.96
2022-10-23T12:57:26.581Z,16.10
2022-10-23T13:02:31.577Z,16.10
2022-10-23T13:07:37.145Z,16.00
2022-10-23T13:12:44.765Z,15.83
2022-10-23T13:17:55.817Z,15.66
2022-10-23T13:23:11.918Z,15.67
2022-10-23T13:28:29.257Z,15.71
2022-10-23T13:33:33.208Z,15.63
2022-10-23T13:38:38.284Z,15.60
2022-10-23T13:43:42.987Z,15.55
2022-10-23T13:48:46.294Z,15.62
2022-10-23T13:53:49.443Z,15.66
2022-10-23T13:58:51.829Z,15.67
2022-10-23T14:03:58.235Z,15.55
2022-10-23T14:09:00.658Z,15.49
2022-10-23T14:14:03.264Z,15.47
2022-10-23T14:19:05.660Z,15.41
2022-10-23T14:24:08.852Z,15.32
2022-10-23T14:29:17.245Z,15.25
2022-10-23T14:34:23.775Z,15.21
2022-10-23T14:39:26.052Z,15.11
2022-10-23T14:44:28.423Z,14.97
2022-10-23T14:49:31.037Z,14.91
2022-10-23T14:54:33.437Z,14.86
2022-10-23T14:59:35.733Z,14.81
2022-10-23T15:04:38.815Z,14.81
2022-10-23T15:09:40.983Z,14.85
2022-10-23T15:14:43.249Z,14.82
2022-10-23T15:19:45.524Z,14.84
2022-10-23T15:24:47.784Z,14.83
2022-10-23T15:29:50.049Z,14.75
2022-10-23T15:34:52.529Z,14.61
2022-10-23T15:39:59.714Z,14.50
2022-10-23T15:45:04.809Z,14.44
2022-10-23T15:50:07.779Z,14.42
2022-10-23T15:55:10.089Z,14.37
2022-10-23T16:00:16.969Z,14.29
2022-10-23T16:05:20.605Z,14.04
2022-10-23T16:10:22.898Z,13.88
2022-10-23T16:15:25.192Z,13.71
2022-10-23T16:20:27.484Z,13.58
2022-10-23T16:25:29.945Z,13.54
2022-10-23T16:30:32.320Z,13.50
2022-10-23T16:35:35.393Z,13.48
2022-10-23T16:40:51.544Z,13.48
2022-10-23T16:46:21.293Z,13.46
2022-10-23T16:51:26.311Z,13.34
2022-10-23T16:56:29.730Z,13.21
2022-10-23T17:01:33.211Z,13.03
2022-10-23T17:06:36.028Z,12.93
2022-10-23T17:11:39.853Z,13.06
2022-10-23T17:16:48.613Z,12.86
2022-10-23T17:21:51.055Z,12.74
2022-10-23T17:26:54.504Z,12.88
2022-10-23T17:31:56.909Z,13.13
2022-10-23T17:36:59.271Z,13.43
2022-10-23T17:42:01.604Z,13.66
2022-10-23T17:47:04.028Z,13.87
2022-10-23T17:52:06.379Z,14.00
2022-10-23T17:57:08.653Z,14.13
2022-10-23T18:02:12.613Z,14.16
2022-10-23T18:07:15.743Z,14.14
2022-10-23T18:12:18.467Z,14.18
2022-10-23T18:17:20.763Z,14.15
2022-10-23T18:22:23.082Z,14.11
2022-10-23T18:27:25.673Z,14.13
2022-10-23T18:32:27.975Z,14.20
2022-10-23T18:37:33.838Z,14.24
2022-10-23T18:42:37.877Z,14.25
2022-10-23T18:47:40.182Z,14.19
2022-10-23T18:52:42.563Z,14.18
2022-10-23T18:57:45.127Z,14.31
2022-10-23T19:02:52.112Z,14.47
2022-10-23T19:07:55.153Z,14.54
2022-10-23T19:12:57.558Z,14.52
2022-10-23T19:18:00.125Z,14.43
2022-10-23T19:23:05.005Z,14.45
2022-10-23T19:28:07.408Z,14.40
2022-10-23T19:33:09.760Z,14.34
2022-10-23T19:38:12.055Z,14.31
2022-10-23T19:43:14.422Z,14.22
2022-10-23T19:48:16.792Z,14.09
2022-10-23T19:53:19.389Z,13.98
2022-10-23T19:58:21.689Z,13.98
2022-10-23T20:03:23.981Z,14.08
2022-10-23T20:08:28.347Z,14.17
2022-10-23T20:13:33.531Z,14.31
2022-10-23T20:18:35.861Z,14.41
2022-10-23T20:23:38.151Z,14.46
2022-10-23T20:28:40.449Z,14.47
2022-10-23T20:33:43.165Z,14.55
2022-10-23T20:38:45.558Z,14.43
2022-10-23T20:43:48.063Z,14.39
2022-10-23T20:48:51.080Z,14.42
2022-10-23T20:53:53.625Z,14.60
2022-10-23T20:58:57.922Z,14.67
2022-10-23T21:04:01.978Z,14.79
2022-10-23T21:09:05.618Z,14.70
2022-10-23T21:14:07.924Z,14.61
2022-10-23T21:19:15.373Z,14.55
2022-10-23T21:24:18.093Z,14.39
2022-10-23T21:29:20.734Z,14.29
2022-10-23T21:34:24.628Z,14.21
2022-10-23T21:39:26.977Z,14.13
2022-10-23T21:44:29.310Z,14.06
2022-10-23T21:49:31.879Z,13.97
2022-10-23T21:54:34.166Z,13.88
2022-10-23T21:59:36.477Z,13.80
2022-10-23T22:04:39.518Z,13.78
2022-10-23T22:09:42.318Z,13.68
2022-10-23T22:14:44.599Z,13.60
2022-10-23T22:19:46.874Z,13.49
2022-10-23T22:24:49.221Z,13.46
2022-10-23T22:29:51.516Z,13.48
2022-10-23T22:34:53.813Z,13.58
2022-10-23T22:39:56.079Z,13.68
2022-10-23T22:44:58.341Z,13.57
2022-10-23T22:50:00.612Z,13.69
2022-10-23T22:55:03.098Z,13.51
2022-10-23T23:00:06.553Z,13.48
2022-10-23T23:05:11.493Z,13.39
2022-10-23T23:10:13.789Z,13.25
2022-10-23T23:15:16.159Z,13.09
2022-10-23T23:20:18.503Z,13.07
2022-10-23T23:25:20.772Z,13.03
2022-10-23T23:30:23.873Z,13.13
2022-10-23T23:35:26.204Z,13.28
2022-10-23T23:40:28.488Z,13.40
2022-10-23T23:45:31.245Z,13.57
2022-10-23T23:50:33.549Z,13.55
2022-10-23T23:55:36.296Z,13.81
